Time;durP1;ratioP1;P1;durP2;ratioP2;P2;SDS_P1;SDS_P2;PMS_P1;PMS_P2;Temp;Humidity;BMP_temperature;BMP_pressure;BME280_temperature;BME280_humidity;BME280_pressure;Samples;Min_cycle;Max_cycle;Signal;HPM_P1;HPM_P2
2022/10/31 00:01:28;;;;;;;23.53;12.87;;;17.20;76.90;;;;;;5044589;28;20242;-82
2022/10/31 00:03:57;;;;;;;22.07;11.17;;;17.20;76.90;;;;;;5039507;28;20265;-82
2022/10/31 00:06:26;;;;;;;25.27;11.63;;;17.20;76.90;;;;;;5043656;28;20266;-82
2022/10/31 00:08:56;;;;;;;22.57;11.93;;;17.20;76.90;;;;;;5043993;28;20816;-81
2022/10/31 00:11:24;;;;;;;25.83;12.10;;;17.20;76.90;;;;;;5043849;28;20191;-83
2022/10/31 00:13:53;;;;;;;23.80;12.20;;;17.20;76.90;;;;;;5049118;28;20195;-83
2022/10/31 00:16:24;;;;;;;25.43;11.00;;;17.20;77.70;;;;;;5038713;28;20234;-83
2022/10/31 00:18:55;;;;;;;25.50;11.73;;;17.20;76.90;;;;;;5042127;28;20256;-83
2022/10/31 00:21:24;;;;;;;21.90;11.17;;;17.20;76.90;;;;;;5041931;28;20217;-83
2022/10/31 00:23:53;;;;;;;23.97;11.83;;;17.10;76.80;;;;;;5037471;28;20734;-83
2022/10/31 00:26:21;;;;;;;29.97;11.33;;;17.10;76.90;;;;;;5041889;28;20272;-83
2022/10/31 00:28:50;;;;;;;23.30;11.17;;;17.10;76.90;;;;;;5047593;28;20229;-80
2022/10/31 00:31:19;;;;;;;20.53;10.60;;;17.10;76.90;;;;;;4989544;28;20192;-81
2022/10/31 00:33:47;;;;;;;24.57;11.10;;;17.10;77.00;;;;;;5040598;28;20245;-83
2022/10/31 00:36:19;;;;;;;28.27;12.07;;;17.10;77.10;;;;;;5041965;28;20293;-84
2022/10/31 00:38:48;;;;;;;23.10;10.93;;;17.10;77.20;;;;;;5044564;28;20537;-83
2022/10/31 00:41:18;;;;;;;21.13;10.33;;;17.00;77.10;;;;;;5035204;28;21263;-83
2022/10/31 00:43:46;;;;;;;27.27;10.33;;;17.00;77.20;;;;;;5040132;28;20219;-82
2022/10/31 00:46:15;;;;;;;19.90;9.73;;;17.00;77.20;;;;;;5038826;28;20215;-81
2022/10/31 00:48:43;;;;;;;17.90;9.87;;;17.00;78.30;;;;;;5042572;28;20199;-83
2022/10/31 00:51:12;;;;;;;19.77;9.10;;;17.00;77.40;;;;;;5040312;28;20198;-82
2022/10/31 00:53:41;;;;;;;20.80;10.17;;;17.10;77.50;;;;;;5041942;28;20195;-83
2022/10/31 00:56:10;;;;;;;16.50;9.37;;;17.10;77.40;;;;;;5045371;28;20265;-82
2022/10/31 00:58:38;;;;;;;19.63;9.57;;;17.10;77.30;;;;;;5038909;28;20195;-83
2022/10/31 01:01:06;;;;;;;18.10;9.23;;;17.20;77.40;;;;;;5038639;28;20191;-84
2022/10/31 01:03:35;;;;;;;16.43;8.37;;;17.10;77.30;;;;;;5035362;28;20234;-81
2022/10/31 01:06:06;;;;;;;18.57;9.47;;;17.10;77.20;;;;;;5039549;28;20276;-82
2022/10/31 01:08:34;;;;;;;16.60;9.17;;;17.20;77.20;;;;;;5038732;28;20195;-82
2022/10/31 01:11:12;;;;;;;16.43;8.70;;;17.20;77.20;;;;;;5042118;28;20195;-83
2022/10/31 01:13:41;;;;;;;20.77;9.20;;;17.20;77.00;;;;;;5034723;28;20192;-82
2022/10/31 01:16:13;;;;;;;23.13;9.93;;;17.20;77.00;;;;;;5043546;28;20631;-82
2022/10/31 01:18:41;;;;;;;20.43;9.57;;;17.20;77.00;;;;;;5041099;28;20249;-83
2022/10/31 01:21:16;;;;;;;17.20;8.83;;;17.20;77.00;;;;;;5041865;28;20195;-81
2022/10/31 01:23:45;;;;;;;17.43;8.80;;;17.20;77.00;;;;;;5041497;28;20187;-83
2022/10/31 01:26:19;;;;;;;17.30;9.47;;;17.20;76.90;;;;;;5040527;28;20218;-82
2022/10/31 01:28:51;;;;;;;18.97;8.67;;;17.20;77.00;;;;;;5043796;28;20195;-81
2022/10/31 01:31:22;;;;;;;18.80;8.97;;;17.20;77.00;;;;;;5034736;28;20935;-82
2022/10/31 01:33:51;;;;;;;17.90;9.07;;;17.20;76.90;;;;;;5037592;28;20194;-82
2022/10/31 01:36:22;;;;;;;18.93;8.57;;;17.10;76.80;;;;;;5040483;28;20203;-83
2022/10/31 01:38:52;;;;;;;19.13;8.27;;;17.10;76.90;;;;;;5041721;28;20183;-83
2022/10/31 01:41:23;;;;;;;18.73;9.33;;;17.10;76.90;;;;;;5037753;28;20208;-82
2022/10/31 01:43:54;;;;;;;16.47;8.10;;;17.10;76.90;;;;;;5036997;28;21176;-80
2022/10/31 01:46:25;;;;;;;17.83;9.00;;;17.10;76.90;;;;;;5037465;28;20583;-83
2022/10/31 01:48:56;;;;;;;20.43;8.90;;;17.10;77.20;;;;;;5033458;28;20638;-83
2022/10/31 01:51:29;;;;;;;19.10;8.47;;;17.10;77.20;;;;;;5042917;28;20195;-82
2022/10/31 01:54:03;;;;;;;17.50;8.20;;;17.00;77.80;;;;;;5043229;28;20187;-82
2022/10/31 01:56:35;;;;;;;19.33;8.07;;;17.00;77.70;;;;;;5035828;28;20331;-83
2022/10/31 01:59:07;;;;;;;18.90;9.73;;;17.00;77.80;;;;;;5047345;28;20240;-82
2022/10/31 02:01:36;;;;;;;18.03;8.93;;;16.90;78.10;;;;;;5039786;28;20214;-82
2022/10/31 02:04:05;;;;;;;18.47;8.17;;;16.90;78.00;;;;;;5043759;28;20282;-82
2022/10/31 02:06:38;;;;;;;19.20;8.30;;;16.90;78.20;;;;;;5045081;28;20226;-82
2022/10/31 02:09:07;;;;;;;16.97;7.80;;;16.90;78.30;;;;;;5036658;28;20230;-79
2022/10/31 02:11:37;;;;;;;19.97;8.33;;;16.90;78.40;;;;;;5046735;28;20227;-84
2022/10/31 02:14:06;;;;;;;15.80;8.10;;;16.80;78.50;;;;;;5044859;28;20191;-79
2022/10/31 02:16:34;;;;;;;16.53;8.77;;;16.90;78.50;;;;;;5037426;28;20245;-83
2022/10/31 02:19:03;;;;;;;19.17;8.53;;;16.90;78.40;;;;;;5041867;28;20187;-83
2022/10/31 02:21:41;;;;;;;15.87;8.93;;;16.90;78.30;;;;;;5045144;28;20195;-81
2022/10/31 02:24:33;;;;;;;21.17;9.50;;;16.90;78.20;;;;;;5045267;28;20609;-84
2022/10/31 02:27:44;;;;;;;18.60;8.93;;;16.90;78.10;;;;;;5040646;28;20226;-83
2022/10/31 02:30:16;;;;;;;15.90;8.60;;;16.90;78.00;;;;;;5044205;28;20646;-82
2022/10/31 02:32:54;;;;;;;19.07;9.00;;;16.80;77.90;;;;;;5040680;28;20292;-83
2022/10/31 02:35:38;;;;;;;19.27;8.20;;;16.90;78.00;;;;;;5038544;28;20677;-83
2022/10/31 02:38:16;;;;;;;14.77;8.10;;;16.80;78.10;;;;;;5040142;28;20191;-84
2022/10/31 02:40:54;;;;;;;17.87;8.70;;;16.80;78.60;;;;;;5045147;28;20187;-83
2022/10/31 02:43:28;;;;;;;17.57;9.00;;;16.70;78.60;;;;;;5040285;28;20670;-84
2022/10/31 02:46:02;;;;;;;15.77;8.53;;;16.70;78.50;;;;;;5043582;28;20279;-84
2022/10/31 02:48:35;;;;;;;15.90;8.90;;;16.60;78.60;;;;;;5044588;28;20264;-84
2022/10/31 02:51:05;;;;;;;15.57;8.23;;;16.60;78.50;;;;;;5043801;28;20196;-83
2022/10/31 02:53:34;;;;;;;16.90;8.57;;;16.60;79.40;;;;;;5043284;28;20245;-84
2022/10/31 02:56:06;;;;;;;14.40;8.77;;;16.50;78.70;;;;;;5041506;28;20309;-83
2022/10/31 02:58:38;;;;;;;13.80;7.83;;;16.50;79.40;;;;;;5041867;28;20194;-83
2022/10/31 03:01:32;;;;;;;18.50;8.57;;;16.50;79.90;;;;;;5046998;28;20191;-84
2022/10/31 03:04:17;;;;;;;20.97;9.30;;;16.40;80.30;;;;;;5043146;28;20266;-84
2022/10/31 03:06:52;;;;;;;18.23;8.20;;;16.30;80.60;;;;;;5046146;28;20213;-84
2022/10/31 03:09:25;;;;;;;16.40;8.70;;;16.30;80.50;;;;;;5040419;28;20246;-84
2022/10/31 03:11:59;;;;;;;16.47;8.93;;;16.30;80.70;;;;;;5041704;28;20287;-84
2022/10/31 03:14:36;;;;;;;21.67;8.97;;;16.30;80.80;;;;;;5038106;28;20617;-84
2022/10/31 03:17:09;;;;;;;19.30;9.20;;;16.20;81.60;;;;;;5039908;28;20198;-84
2022/10/31 03:19:42;;;;;;;20.70;9.80;;;16.20;81.10;;;;;;5046233;28;20256;-84
2022/10/31 03:22:17;;;;;;;20.00;9.83;;;16.20;81.10;;;;;;5047420;28;20187;-84
2022/10/31 03:24:47;;;;;;;17.87;9.63;;;16.20;81.10;;;;;;5043926;28;20237;-83
2022/10/31 03:27:19;;;;;;;19.60;9.40;;;16.20;81.00;;;;;;5040764;28;20194;-83
2022/10/31 03:29:50;;;;;;;19.23;10.10;;;16.20;80.90;;;;;;5041672;28;20245;-83
2022/10/31 03:32:23;;;;;;;19.03;9.07;;;16.10;81.00;;;;;;5038675;28;20223;-83
2022/10/31 03:34:57;;;;;;;19.23;10.03;;;16.10;81.00;;;;;;5041988;28;20187;-83
2022/10/31 03:37:28;;;;;;;19.47;10.00;;;16.10;81.00;;;;;;5036014;28;20191;-80
2022/10/31 03:39:59;;;;;;;21.83;10.40;;;16.10;81.10;;;;;;5038350;28;20216;-81
2022/10/31 03:42:32;;;;;;;20.27;9.97;;;16.00;81.10;;;;;;5046716;28;20667;-80
2022/10/31 03:45:05;;;;;;;18.17;9.90;;;16.00;81.10;;;;;;5046497;28;20268;-84
2022/10/31 03:47:33;;;;;;;17.47;10.10;;;16.00;81.10;;;;;;5037512;28;20226;-83
2022/10/31 03:50:04;;;;;;;21.47;10.00;;;15.90;81.10;;;;;;5038148;28;20234;-82
2022/10/31 03:52:38;;;;;;;17.03;9.97;;;15.90;81.20;;;;;;5040093;28;20729;-84
2022/10/31 03:55:11;;;;;;;24.10;9.90;;;15.90;81.20;;;;;;5040872;28;20241;-84
2022/10/31 03:57:45;;;;;;;21.03;8.77;;;15.80;81.30;;;;;;5047086;28;20253;-84
2022/10/31 04:00:15;;;;;;;20.93;8.73;;;15.80;81.30;;;;;;5046116;28;20244;-82
2022/10/31 04:02:46;;;;;;;16.87;8.67;;;15.80;81.30;;;;;;5041011;28;20202;-82
2022/10/31 04:05:18;;;;;;;21.37;9.30;;;15.70;81.30;;;;;;5037742;28;20230;-83
2022/10/31 04:07:56;;;;;;;18.70;8.70;;;15.70;81.40;;;;;;5045545;28;20229;-84
2022/10/31 04:10:26;;;;;;;21.45;10.07;;;15.70;81.40;;;;;;5042742;28;20558;-83
2022/10/31 04:13:05;;;;;;;19.50;8.97;;;15.60;81.60;;;;;;5039902;28;20194;-84
2022/10/31 04:15:35;;;;;;;17.70;9.40;;;15.60;81.70;;;;;;5036721;28;20199;-83
2022/10/31 04:18:06;;;;;;;15.93;8.67;;;15.60;81.70;;;;;;5038291;28;20223;-83
2022/10/31 04:20:38;;;;;;;19.73;9.17;;;15.60;81.70;;;;;;5039874;28;20195;-83
2022/10/31 04:23:14;;;;;;;21.80;11.23;;;15.60;81.60;;;;;;5036639;28;20536;-82
2022/10/31 04:25:43;;;;;;;22.30;9.67;;;15.50;82.00;;;;;;5042032;28;20789;-84
2022/10/31 04:28:11;;;;;;;20.90;9.00;;;15.50;82.00;;;;;;5036680;28;20246;-84
2022/10/31 04:30:39;;;;;;;15.80;9.20;;;15.50;81.90;;;;;;5038987;28;20199;-83
2022/10/31 04:33:08;;;;;;;18.00;9.47;;;15.40;81.80;;;;;;5038627;28;21391;-82
2022/10/31 04:35:37;;;;;;;21.80;9.87;;;15.40;81.80;;;;;;5039816;28;20629;-83
2022/10/31 04:38:06;;;;;;;19.97;9.77;;;15.40;81.90;;;;;;5040230;28;20678;-84
2022/10/31 04:40:34;;;;;;;19.47;9.63;;;15.40;81.90;;;;;;5035859;28;20659;-84
2022/10/31 04:43:02;;;;;;;16.03;8.80;;;15.40;81.90;;;;;;5042062;28;20199;-80
2022/10/31 04:45:31;;;;;;;15.67;9.27;;;15.30;81.80;;;;;;5038023;28;20899;-84
2022/10/31 04:47:59;;;;;;;20.03;9.40;;;15.30;81.80;;;;;;5037910;28;20224;-83
2022/10/31 04:50:28;;;;;;;20.70;8.93;;;15.30;81.70;;;;;;5037499;28;20233;-84
2022/10/31 04:52:58;;;;;;;20.27;10.53;;;15.30;81.70;;;;;;5039800;28;20226;-83
2022/10/31 04:55:26;;;;;;;15.63;9.93;;;15.30;81.80;;;;;;5045689;28;20222;-85
2022/10/31 04:57:54;;;;;;;20.57;9.90;;;15.30;81.80;;;;;;5042670;28;20244;-84
2022/10/31 05:00:24;;;;;;;21.23;9.43;;;15.30;81.90;;;;;;5038385;28;20616;-84
2022/10/31 05:02:54;;;;;;;25.60;10.60;;;15.20;81.90;;;;;;5036211;28;20192;-84
2022/10/31 05:05:25;;;;;;;21.40;9.97;;;15.20;81.90;;;;;;5040872;28;20559;-84
2022/10/31 05:07:53;;;;;;;19.03;9.63;;;15.20;81.90;;;;;;5039641;28;20697;-84
2022/10/31 05:10:25;;;;;;;19.53;9.57;;;15.20;82.00;;;;;;5040465;28;20251;-84
2022/10/31 05:12:54;;;;;;;22.90;9.60;;;15.20;82.00;;;;;;5044932;28;20233;-84
2022/10/31 05:15:24;;;;;;;15.97;9.03;;;15.20;82.10;;;;;;5040964;28;20231;-85
2022/10/31 05:17:53;;;;;;;19.83;9.40;;;15.20;82.10;;;;;;5044313;28;20282;-83
2022/10/31 05:20:23;;;;;;;23.27;9.77;;;15.20;82.10;;;;;;5037763;28;20635;-84
2022/10/31 05:22:53;;;;;;;17.57;9.87;;;15.10;82.20;;;;;;5042610;28;20191;-80
2022/10/31 05:25:27;;;;;;;25.07;9.33;;;15.20;82.30;;;;;;5037532;28;20258;-84
2022/10/31 05:27:56;;;;;;;22.30;9.47;;;15.10;82.20;;;;;;5042345;28;20199;-83
2022/10/31 05:30:26;;;;;;;21.80;10.13;;;15.10;82.20;;;;;;5039695;28;20365;-84
2022/10/31 05:32:55;;;;;;;22.97;9.33;;;15.10;82.30;;;;;;5034298;28;20191;-84
2022/10/31 05:35:26;;;;;;;19.27;8.90;;;15.10;82.30;;;;;;5036510;28;20195;-84
2022/10/31 05:37:55;;;;;;;19.60;9.43;;;15.20;82.40;;;;;;5036415;28;20200;-84
2022/10/31 05:40:25;;;;;;;19.63;9.97;;;15.20;82.50;;;;;;5035857;28;20188;-83
2022/10/31 05:42:55;;;;;;;24.60;10.67;;;15.20;82.80;;;;;;5035540;28;22123;-84
2022/10/31 05:45:25;;;;;;;22.73;10.70;;;15.20;82.80;;;;;;5037242;28;20248;-83
2022/10/31 05:47:54;;;;;;;21.40;10.30;;;15.20;82.90;;;;;;5042130;28;20195;-83
2022/10/31 05:50:22;;;;;;;21.47;9.63;;;15.30;83.00;;;;;;5036439;28;20349;-83
2022/10/31 05:52:56;;;;;;;22.93;10.57;;;15.30;83.10;;;;;;5034796;28;20230;-83
2022/10/31 05:55:26;;;;;;;18.20;9.70;;;15.30;83.10;;;;;;5033848;28;20199;-83
2022/10/31 05:57:55;;;;;;;27.80;11.30;;;15.40;83.20;;;;;;5043342;28;20262;-82
2022/10/31 06:00:25;;;;;;;17.73;10.10;;;15.40;83.20;;;;;;5039362;28;20541;-83
2022/10/31 06:02:59;;;;;;;24.43;11.67;;;15.50;83.30;;;;;;5041835;28;20610;-79
2022/10/31 06:05:28;;;;;;;25.57;11.53;;;15.50;83.90;;;;;;5040154;28;20230;-82
2022/10/31 06:07:56;;;;;;;29.97;13.13;;;15.50;83.90;;;;;;5037623;28;20221;-83
2022/10/31 06:10:28;;;;;;;32.83;12.47;;;15.60;84.00;;;;;;5039118;28;20219;-80
2022/10/31 06:12:56;;;;;;;30.97;12.73;;;15.70;83.90;;;;;;5037145;28;20195;-81
2022/10/31 06:15:24;;;;;;;30.75;13.85;;;15.80;84.10;;;;;;5036966;28;20446;-81
2022/10/31 06:18:00;;;;;;;28.33;14.03;;;15.80;84.40;;;;;;5037597;28;20198;-81
2022/10/31 06:20:29;;;;;;;25.90;12.47;;;15.80;84.30;;;;;;5044346;28;20282;-82
2022/10/31 06:22:57;;;;;;;26.23;12.37;;;15.80;84.30;;;;;;5045309;28;20587;-80
2022/10/31 06:25:28;;;;;;;31.23;11.27;;;15.90;84.40;;;;;;5043144;28;20200;-84
2022/10/31 06:27:57;;;;;;;28.30;9.73;;;15.90;84.20;;;;;;5038318;28;20246;-83
2022/10/31 06:30:25;;;;;;;26.13;10.20;;;16.00;84.10;;;;;;5040785;28;20219;-84
2022/10/31 06:32:53;;;;;;;27.00;12.07;;;16.00;83.90;;;;;;5043578;28;20198;-85
2022/10/31 06:35:22;;;;;;;31.57;10.60;;;16.10;83.90;;;;;;5041226;28;20199;-85
2022/10/31 06:37:53;;;;;;;27.83;11.20;;;16.10;83.80;;;;;;5044878;28;20195;-86
2022/10/31 06:40:22;;;;;;;22.90;10.63;;;16.20;83.80;;;;;;5042875;28;20196;-85
2022/10/31 06:42:58;;;;;;;23.80;10.33;;;16.30;83.70;;;;;;5043610;28;20668;-83
2022/10/31 06:45:27;;;;;;;19.23;11.20;;;16.40;83.70;;;;;;5047715;28;20207;-84
2022/10/31 06:47:57;;;;;;;27.07;10.17;;;16.50;83.70;;;;;;5047413;28;20235;-84
2022/10/31 06:50:45;;;;;;;23.23;10.87;;;16.60;83.70;;;;;;5039587;28;20237;-83
2022/10/31 06:53:14;;;;;;;22.60;10.63;;;16.70;83.60;;;;;;5041401;28;20644;-84
2022/10/31 06:55:43;;;;;;;23.73;10.63;;;16.80;83.60;;;;;;5043846;28;20199;-83
2022/10/31 06:58:12;;;;;;;24.20;10.90;;;16.90;83.60;;;;;;5050733;28;20206;-84
2022/10/31 07:00:41;;;;;;;26.60;10.30;;;17.00;83.50;;;;;;5045059;28;20223;-82
2022/10/31 07:03:12;;;;;;;20.13;10.43;;;17.20;83.50;;;;;;5044888;28;20283;-81
2022/10/31 07:05:40;;;;;;;21.37;10.33;;;17.20;83.20;;;;;;5041724;28;20242;-82
2022/10/31 07:08:11;;;;;;;21.83;9.17;;;17.30;83.20;;;;;;5045416;28;20191;-83
2022/10/31 07:10:41;;;;;;;27.60;10.93;;;17.40;83.00;;;;;;5049188;28;20206;-83
2022/10/31 07:13:14;;;;;;;21.03;10.23;;;17.40;82.90;;;;;;5046216;28;20196;-82
2022/10/31 07:15:44;;;;;;;22.60;10.40;;;17.50;82.80;;;;;;5043742;28;20222;-83
2022/10/31 07:18:13;;;;;;;23.40;9.70;;;17.60;82.50;;;;;;5049040;28;20199;-82
2022/10/31 07:20:41;;;;;;;21.17;10.37;;;17.70;82.30;;;;;;5039633;28;20192;-83
2022/10/31 07:23:11;;;;;;;29.43;11.07;;;17.70;82.00;;;;;;5045884;28;20241;-83
2022/10/31 07:25:40;;;;;;;26.00;10.57;;;17.90;82.10;;;;;;5045198;28;20226;-83
2022/10/31 07:28:09;;;;;;;18.30;10.43;;;17.90;82.00;;;;;;5050767;28;20187;-83
2022/10/31 07:30:39;;;;;;;23.23;8.00;;;18.00;81.90;;;;;;5038244;28;20219;-82
2022/10/31 07:33:09;;;;;;;21.93;9.07;;;18.10;81.60;;;;;;5049167;28;20227;-82
2022/10/31 07:35:37;;;;;;;22.83;7.83;;;18.20;82.40;;;;;;5048325;28;20656;-83
2022/10/31 07:38:10;;;;;;;15.37;7.50;;;18.20;81.10;;;;;;5045732;28;20265;-83
2022/10/31 07:40:39;;;;;;;20.17;10.43;;;18.30;81.20;;;;;;5043769;28;20673;-84
2022/10/31 07:43:07;;;;;;;19.93;7.93;;;18.40;81.10;;;;;;5051170;28;20207;-84
2022/10/31 07:45:42;;;;;;;19.83;8.40;;;18.40;81.00;;;;;;5040296;28;20192;-83
2022/10/31 07:48:10;;;;;;;24.00;8.03;;;18.50;80.90;;;;;;5046763;28;20195;-83
2022/10/31 07:50:39;;;;;;;13.23;6.63;;;18.60;80.70;;;;;;5042733;28;20211;-80
2022/10/31 07:53:10;;;;;;;20.63;6.70;;;18.60;80.20;;;;;;5043238;28;20203;-82
2022/10/31 07:55:39;;;;;;;15.13;6.80;;;18.70;79.60;;;;;;5047901;28;20191;-84
2022/10/31 07:58:09;;;;;;;12.23;7.10;;;18.80;79.90;;;;;;5046898;28;20188;-82
2022/10/31 08:00:38;;;;;;;18.40;7.03;;;18.80;79.70;;;;;;5042726;28;20619;-83
2022/10/31 08:03:10;;;;;;;14.77;6.23;;;18.80;79.00;;;;;;5042996;28;20281;-84
2022/10/31 08:05:40;;;;;;;13.73;5.63;;;18.90;79.30;;;;;;5044580;28;20809;-85
2022/10/31 08:08:09;;;;;;;14.13;5.97;;;19.00;79.20;;;;;;5038297;28;20222;-82
2022/10/31 08:10:38;;;;;;;13.37;4.87;;;19.10;79.00;;;;;;5038743;28;20280;-85
2022/10/31 08:13:09;;;;;;;10.37;5.13;;;19.10;78.70;;;;;;5045123;28;20211;-83
2022/10/31 08:15:44;;;;;;;12.63;6.77;;;19.20;78.60;;;;;;5049855;28;20191;-83
2022/10/31 08:18:15;;;;;;;14.50;6.33;;;19.20;78.00;;;;;;5049125;28;20190;-85
2022/10/31 08:20:44;;;;;;;13.60;5.73;;;19.30;77.80;;;;;;5048541;28;20195;-79
2022/10/31 08:23:14;;;;;;;17.23;5.50;;;19.30;77.60;;;;;;5045161;28;20245;-79
2022/10/31 08:25:42;;;;;;;16.65;5.32;;;19.40;77.70;;;;;;5047305;28;20198;-79
2022/10/31 08:28:12;;;;;;;15.37;5.37;;;19.50;77.70;;;;;;5041660;28;20249;-79
2022/10/31 08:30:41;;;;;;;10.85;5.07;;;19.50;77.70;;;;;;5036660;28;20259;-79
2022/10/31 08:33:11;;;;;;;13.23;5.20;;;19.60;77.70;;;;;;5037452;28;20219;-79
2022/10/31 08:35:42;;;;;;;14.43;5.60;;;19.70;77.80;;;;;;5040832;28;20196;-79
2022/10/31 08:38:14;;;;;;;13.57;4.53;;;19.70;77.10;;;;;;5041985;28;20218;-79
2022/10/31 08:40:42;;;;;;;11.17;5.27;;;19.80;76.50;;;;;;5042969;28;20188;-79
2022/10/31 08:43:14;;;;;;;10.85;4.82;;;19.90;76.60;;;;;;5043553;28;20718;-78
2022/10/31 08:45:43;;;;;;;12.02;4.22;;;19.90;76.60;;;;;;5037124;28;20249;-78
2022/10/31 08:48:13;;;;;;;13.18;5.07;;;20.00;76.60;;;;;;5047253;28;20675;-79
2022/10/31 08:50:44;;;;;;;13.05;5.13;;;20.10;76.10;;;;;;5047481;28;20211;-78
2022/10/31 08:53:13;;;;;;;11.10;5.18;;;20.10;75.80;;;;;;5036891;28;20206;-78
2022/10/31 08:55:43;;;;;;;10.63;4.93;;;20.20;75.70;;;;;;5041823;28;20219;-78
2022/10/31 08:58:13;;;;;;;9.15;4.82;;;20.30;75.80;;;;;;5039430;28;20203;-78
2022/10/31 09:00:42;;;;;;;13.65;4.70;;;20.40;75.60;;;;;;5045426;28;20195;-78
2022/10/31 09:03:12;;;;;;;10.18;4.95;;;20.50;75.80;;;;;;5039361;28;20194;-79
2022/10/31 09:05:42;;;;;;;13.07;4.90;;;20.50;75.40;;;;;;4996918;28;20202;-78
2022/10/31 09:08:11;;;;;;;11.60;4.20;;;20.60;75.00;;;;;;5046633;28;20270;-78
2022/10/31 09:10:51;;;;;;;13.35;5.68;;;20.60;74.70;;;;;;5041911;28;20188;-77
2022/10/31 09:13:21;;;;;;;9.45;5.40;;;20.60;73.90;;;;;;5045449;28;20606;-78
2022/10/31 09:15:55;;;;;;;12.13;5.10;;;20.70;73.70;;;;;;5042659;28;20198;-78
2022/10/31 09:18:24;;;;;;;10.02;5.10;;;20.70;73.60;;;;;;5043158;28;20240;-78
2022/10/31 09:20:54;;;;;;;14.50;5.57;;;20.80;73.80;;;;;;5056907;28;20199;-80
2022/10/31 09:23:23;;;;;;;13.20;5.25;;;20.80;73.50;;;;;;5045632;28;20203;-79
2022/10/31 09:25:54;;;;;;;13.23;5.82;;;20.90;73.20;;;;;;5037156;28;20195;-78
2022/10/31 09:28:24;;;;;;;12.57;5.55;;;20.80;72.70;;;;;;5044092;28;20295;-78
2022/10/31 09:30:54;;;;;;;12.88;5.68;;;20.90;72.90;;;;;;5044325;28;20647;-78
2022/10/31 09:33:22;;;;;;;15.88;6.00;;;21.00;72.90;;;;;;5037293;28;20250;-80
2022/10/31 09:35:55;;;;;;;13.93;5.55;;;21.00;72.60;;;;;;5039179;28;20195;-79
2022/10/31 09:38:27;;;;;;;19.85;6.20;;;21.10;71.90;;;;;;5043574;28;20195;-82
2022/10/31 09:41:03;;;;;;;10.52;5.90;;;21.20;71.80;;;;;;5041704;28;20222;-80
2022/10/31 09:43:38;;;;;;;14.27;5.70;;;21.10;71.40;;;;;;5041678;28;20245;-81
2022/10/31 09:46:13;;;;;;;15.43;6.10;;;21.20;71.60;;;;;;5038659;28;20612;-78
2022/10/31 09:48:55;;;;;;;21.33;7.00;;;21.30;71.10;;;;;;5040820;28;20217;-79
2022/10/31 09:51:30;;;;;;;17.42;6.68;;;21.40;71.30;;;;;;5047402;28;20246;-82
2022/10/31 09:54:03;;;;;;;19.10;7.15;;;21.40;71.30;;;;;;5035787;28;20199;-78
2022/10/31 09:56:34;;;;;;;12.63;6.07;;;21.40;71.00;;;;;;5039899;28;20725;-79
2022/10/31 09:59:06;;;;;;;15.77;6.05;;;21.40;70.70;;;;;;5037207;28;20188;-78
2022/10/31 10:01:40;;;;;;;19.42;6.05;;;21.50;71.20;;;;;;5040667;28;20199;-81
2022/10/31 10:04:29;;;;;;;12.77;5.95;;;21.60;70.90;;;;;;5046840;28;20326;-79
2022/10/31 10:06:59;;;;;;;13.15;5.50;;;21.60;71.10;;;;;;5036307;28;20213;-78
2022/10/31 10:09:28;;;;;;;15.95;5.75;;;21.70;70.50;;;;;;5041715;28;20292;-80
2022/10/31 10:12:04;;;;;;;11.98;5.20;;;21.80;70.00;;;;;;5048020;28;20623;-79
2022/10/31 10:14:45;;;;;;;11.95;5.10;;;21.80;69.70;;;;;;5045888;28;20194;-79
2022/10/31 10:17:23;;;;;;;13.90;5.13;;;21.90;69.70;;;;;;5041808;28;20799;-78
2022/10/31 10:20:13;;;;;;;15.75;6.43;;;22.00;69.30;;;;;;5041498;28;20651;-77
2022/10/31 10:22:48;;;;;;;16.02;5.45;;;22.10;69.40;;;;;;5047228;28;20183;-79
2022/10/31 10:25:21;;;;;;;10.35;4.95;;;22.10;69.00;;;;;;5043315;28;20194;-78
2022/10/31 10:28:05;;;;;;;11.60;5.47;;;22.10;68.90;;;;;;5039764;28;20743;-77
2022/10/31 10:30:40;;;;;;;11.00;4.95;;;22.10;68.60;;;;;;5046728;28;20271;-77
2022/10/31 10:33:13;;;;;;;11.77;5.57;;;22.10;68.70;;;;;;5049167;28;20297;-78
2022/10/31 10:35:46;;;;;;;12.15;5.38;;;22.10;68.60;;;;;;5052224;28;20195;-76
2022/10/31 10:38:23;;;;;;;10.75;4.97;;;22.20;68.70;;;;;;5044823;28;20221;-78
2022/10/31 10:40:54;;;;;;;9.95;4.68;;;22.20;68.00;;;;;;5050378;28;20859;-78
2022/10/31 10:43:24;;;;;;;14.55;4.90;;;22.30;67.80;;;;;;5050162;28;20624;-77
2022/10/31 10:49:11;;;;;;;12.52;4.85;;;22.30;67.40;;;;;;5041509;28;20195;-78
2022/10/31 10:51:44;;;;;;;10.90;4.72;;;22.40;67.20;;;;;;5045797;28;20254;-78
2022/10/31 10:54:43;;;;;;;10.68;4.60;;;22.40;67.50;;;;;;5048227;28;20640;-77
2022/10/31 11:00:20;;;;;;;9.20;4.88;;;22.50;67.30;;;;;;5037299;28;20593;-79
2022/10/31 11:02:49;;;;;;;8.05;4.60;;;22.60;67.20;;;;;;5048069;28;20249;-79
2022/10/31 11:05:25;;;;;;;16.13;5.18;;;22.60;66.70;;;;;;5047268;28;20281;-77
2022/10/31 11:07:53;;;;;;;9.85;4.78;;;22.70;66.40;;;;;;5040894;28;20227;-78
2022/10/31 11:10:23;;;;;;;10.80;5.30;;;22.70;66.30;;;;;;5042838;28;20647;-77
2022/10/31 11:13:15;;;;;;;11.18;5.80;;;22.70;65.70;;;;;;5040255;28;20219;-77
2022/10/31 11:15:53;;;;;;;10.30;4.85;;;22.80;65.30;;;;;;5053689;28;20195;-80
2022/10/31 11:18:24;;;;;;;14.63;5.43;;;22.80;65.40;;;;;;5045637;28;20191;-80
2022/10/31 11:20:59;;;;;;;11.68;4.43;;;22.80;65.30;;;;;;5046220;28;20277;-79
2022/10/31 11:23:29;;;;;;;10.85;5.35;;;22.90;65.40;;;;;;5038831;28;20438;-81
2022/10/31 11:26:00;;;;;;;8.10;4.93;;;23.00;64.90;;;;;;5045373;28;20492;-80
2022/10/31 11:28:32;;;;;;;7.70;4.57;;;23.00;64.50;;;;;;5036613;28;20223;-78
2022/10/31 11:31:01;;;;;;;12.77;5.00;;;23.00;64.50;;;;;;5043213;28;20191;-79
2022/10/31 11:33:33;;;;;;;10.18;4.97;;;23.10;64.80;;;;;;5049551;28;20357;-81
2022/10/31 11:36:04;;;;;;;11.85;5.40;;;23.20;65.20;;;;;;5048931;28;20253;-80
2022/10/31 11:38:41;;;;;;;10.48;5.07;;;23.20;63.70;;;;;;5040898;28;20211;-81
2022/10/31 11:41:16;;;;;;;7.90;4.60;;;23.20;64.10;;;;;;5046627;28;20199;-81
2022/10/31 11:43:50;;;;;;;13.05;5.03;;;23.30;63.80;;;;;;5045851;28;20218;-82
2022/10/31 11:46:23;;;;;;;9.23;4.95;;;23.30;63.80;;;;;;5045523;28;20200;-81
2022/10/31 11:48:54;;;;;;;9.88;5.10;;;23.40;63.80;;;;;;5047418;28;20236;-82
2022/10/31 11:51:25;;;;;;;11.88;4.82;;;23.40;63.70;;;;;;5044164;28;20230;-82
2022/10/31 11:53:55;;;;;;;9.90;4.90;;;23.40;63.40;;;;;;5040901;28;20292;-81
2022/10/31 11:56:40;;;;;;;9.65;4.70;;;23.50;62.90;;;;;;5043414;28;20199;-81
2022/10/31 11:59:21;;;;;;;11.80;4.43;;;23.50;62.90;;;;;;5041025;28;20215;-83
2022/10/31 12:01:51;;;;;;;9.45;4.13;;;23.60;63.10;;;;;;5048675;28;20256;-82
2022/10/31 12:04:25;;;;;;;7.35;4.03;;;23.60;63.00;;;;;;5044631;28;20241;-82
2022/10/31 12:06:56;;;;;;;9.32;5.05;;;23.60;61.90;;;;;;5045694;28;20325;-82
2022/10/31 12:09:26;;;;;;;9.35;4.47;;;23.70;61.50;;;;;;5050432;28;20199;-82
2022/10/31 12:12:14;;;;;;;9.60;4.40;;;23.70;61.60;;;;;;5043719;28;20196;-82
2022/10/31 12:14:56;;;;;;;12.85;4.72;;;23.70;60.40;;;;;;5048841;28;20223;-82
2022/10/31 12:17:31;;;;;;;10.60;4.80;;;23.80;60.90;;;;;;5046931;28;20717;-82
2022/10/31 12:20:09;;;;;;;10.18;4.70;;;23.80;61.10;;;;;;5042287;28;20194;-81
2022/10/31 12:22:46;;;;;;;10.88;5.00;;;23.80;60.90;;;;;;5034559;28;20197;-80
2022/10/31 12:25:34;;;;;;;6.75;4.15;;;23.80;60.90;;;;;;5049048;28;20284;-83
2022/10/31 12:28:28;;;;;;;10.57;4.80;;;23.90;61.30;;;;;;5042746;28;20227;-81
2022/10/31 12:31:04;;;;;;;11.63;4.40;;;23.90;61.60;;;;;;5030698;28;20277;-80
2022/10/31 12:33:51;;;;;;;9.93;4.95;;;24.00;61.40;;;;;;5047061;28;20312;-80
2022/10/31 12:36:34;;;;;;;9.48;5.22;;;24.00;60.80;;;;;;5046310;28;20257;-84
2022/10/31 12:39:22;;;;;;;11.50;5.40;;;24.00;60.50;;;;;;5040056;28;20648;-81
2022/10/31 12:42:03;;;;;;;8.45;4.15;;;24.10;60.90;;;;;;5045862;28;20192;-82
2022/10/31 12:44:56;;;;;;;10.43;4.75;;;24.10;61.10;;;;;;5045815;28;20700;-83
2022/10/31 12:47:40;;;;;;;10.60;4.57;;;24.10;60.20;;;;;;5044554;28;20191;-83
2022/10/31 12:50:29;;;;;;;9.15;4.93;;;24.10;60.00;;;;;;5040378;28;20187;-80
2022/10/31 12:53:07;;;;;;;7.78;4.25;;;24.10;59.90;;;;;;5041906;28;20215;-82
2022/10/31 12:55:56;;;;;;;13.45;4.88;;;24.20;59.90;;;;;;5038238;28;20203;-79
2022/10/31 12:58:30;;;;;;;9.10;5.10;;;24.30;59.60;;;;;;5046353;28;20229;-79
2022/10/31 13:01:10;;;;;;;11.98;5.07;;;24.40;60.30;;;;;;5044177;28;20198;-82
2022/10/31 13:03:48;;;;;;;14.85;4.95;;;24.50;59.90;;;;;;5044575;28;20344;-83
2022/10/31 13:06:20;;;;;;;10.57;5.20;;;24.60;59.80;;;;;;5037570;28;20200;-80
2022/10/31 13:08:53;;;;;;;14.05;4.70;;;24.70;59.50;;;;;;5043134;28;20196;-81